createdAt,value
2024-01-17T00:01:35.813Z,2.97
2024-01-17T00:04:02.760Z,4.20
2024-01-17T00:06:29.909Z,2.83
2024-01-17T00:08:56.870Z,3.43
2024-01-17T00:11:23.849Z,3.27
2024-01-17T00:13:51.192Z,4.37
2024-01-17T00:16:24.381Z,4.07
2024-01-17T00:18:54.841Z,3.00
2024-01-17T00:21:22.457Z,3.23
2024-01-17T00:23:49.368Z,4.37
2024-01-17T00:26:16.350Z,3.33
2024-01-17T00:28:43.340Z,3.30
2024-01-17T00:31:10.339Z,3.97
2024-01-17T00:33:37.520Z,2.53
2024-01-17T00:36:05.024Z,3.47
2024-01-17T00:38:32.509Z,4.30
2024-01-17T00:40:59.423Z,4.17
2024-01-17T00:43:26.420Z,5.70
2024-01-17T00:45:53.305Z,6.30
2024-01-17T00:48:20.385Z,3.77
2024-01-17T00:50:47.362Z,4.43
2024-01-17T00:53:14.380Z,4.03
2024-01-17T00:55:41.363Z,3.93
2024-01-17T00:58:08.235Z,5.37
2024-01-17T01:00:35.179Z,4.17
2024-01-17T01:03:02.133Z,7.97
2024-01-17T01:05:29.466Z,3.37
2024-01-17T01:07:56.500Z,4.63
2024-01-17T01:10:23.447Z,4.80
2024-01-17T01:12:50.473Z,4.00
2024-01-17T01:15:17.318Z,4.43
2024-01-17T01:17:44.273Z,4.13
2024-01-17T01:20:11.696Z,3.47
2024-01-17T01:22:38.793Z,6.13
2024-01-17T01:25:06.580Z,4.03
2024-01-17T01:27:34.060Z,4.70
2024-01-17T01:30:01.512Z,8.40
2024-01-17T01:32:30.526Z,10.70
2024-01-17T01:34:57.533Z,6.70
2024-01-17T01:37:24.427Z,6.37
2024-01-17T01:39:51.386Z,8.37
2024-01-17T01:42:18.242Z,7.03
2024-01-17T01:44:46.730Z,10.30
2024-01-17T01:47:17.417Z,11.57
2024-01-17T01:49:44.863Z,19.37
2024-01-17T01:52:12.002Z,14.90
2024-01-17T01:54:40.246Z,14.50
2024-01-17T01:57:08.798Z,24.63
2024-01-17T01:59:35.913Z,22.57
2024-01-17T02:02:06.025Z,17.13
2024-01-17T02:04:35.946Z,14.77
2024-01-17T02:07:04.105Z,16.17
2024-01-17T02:09:34.024Z,16.53
2024-01-17T02:12:01.365Z,16.63
2024-01-17T02:14:28.378Z,18.47
2024-01-17T02:16:55.320Z,16.97
2024-01-17T02:19:27.463Z,18.73
2024-01-17T02:21:54.391Z,21.13
2024-01-17T02:24:24.780Z,19.00
2024-01-17T02:26:52.097Z,29.23
2024-01-17T02:29:19.200Z,18.57
2024-01-17T02:31:46.525Z,11.30
2024-01-17T02:34:13.977Z,13.43
2024-01-17T02:36:40.999Z,9.30
2024-01-17T02:39:07.940Z,11.53
2024-01-17T02:41:34.836Z,11.60
2024-01-17T02:44:01.825Z,14.93
2024-01-17T02:46:29.828Z,19.23
2024-01-17T02:48:57.003Z,15.90
2024-01-17T02:51:24.233Z,37.37
2024-01-17T02:53:51.201Z,75.33
2024-01-17T02:56:18.210Z,43.30
2024-01-17T02:58:45.874Z,21.43
2024-01-17T03:01:15.375Z,17.50
2024-01-17T03:03:42.595Z,15.23
2024-01-17T03:06:09.551Z,16.50
2024-01-17T03:08:36.644Z,16.00
2024-01-17T03:11:04.076Z,15.73
2024-01-17T03:13:31.044Z,17.17
2024-01-17T03:15:58.050Z,14.73
2024-01-17T03:18:25.123Z,20.77
2024-01-17T03:20:52.145Z,20.00
2024-01-17T03:23:19.636Z,14.80
2024-01-17T03:25:46.542Z,15.63
2024-01-17T03:28:13.416Z,14.73
2024-01-17T03:30:40.440Z,23.20
2024-01-17T03:33:07.427Z,19.57
2024-01-17T03:35:34.464Z,23.10
2024-01-17T03:38:01.335Z,21.00
2024-01-17T03:40:28.364Z,25.57
2024-01-17T03:42:55.301Z,23.53
2024-01-17T03:45:22.477Z,23.67
2024-01-17T03:47:49.517Z,40.57
2024-01-17T03:50:16.584Z,24.00
2024-01-17T03:52:43.494Z,21.77
2024-01-17T03:55:10.373Z,29.20
2024-01-17T03:57:37.233Z,28.23
2024-01-17T04:00:07.800Z,30.40
2024-01-17T04:02:35.040Z,43.20
2024-01-17T04:05:02.116Z,66.93
2024-01-17T04:07:30.074Z,107.60
2024-01-17T04:09:57.026Z,101.83
2024-01-17T04:12:23.994Z,95.00
2024-01-17T04:14:50.931Z,68.00
2024-01-17T04:17:17.810Z,31.53
2024-01-17T04:19:44.746Z,37.43
2024-01-17T04:22:11.712Z,32.93
2024-01-17T04:24:38.570Z,29.27
2024-01-17T04:27:05.576Z,26.27
2024-01-17T04:29:32.636Z,30.47
2024-01-17T04:31:59.536Z,26.33
2024-01-17T04:34:26.555Z,41.90
2024-01-17T04:36:53.517Z,43.30
2024-01-17T04:39:21.055Z,42.60
2024-01-17T04:41:48.153Z,31.27
2024-01-17T04:44:15.135Z,27.53
2024-01-17T04:46:42.169Z,23.87
2024-01-17T04:49:09.491Z,22.13
2024-01-17T04:51:36.598Z,19.27
2024-01-17T04:54:05.289Z,22.70
2024-01-17T04:56:32.323Z,22.07
2024-01-17T04:58:59.439Z,25.77
2024-01-17T05:01:26.588Z,29.73
2024-01-17T05:03:53.616Z,28.10
2024-01-17T05:06:20.734Z,28.57
2024-01-17T05:08:47.888Z,33.83
2024-01-17T05:11:21.570Z,32.03
2024-01-17T05:13:48.835Z,30.63
2024-01-17T05:16:19.253Z,32.63
2024-01-17T05:18:46.570Z,28.67
2024-01-17T05:21:14.498Z,36.67
2024-01-17T05:23:41.593Z,31.13
2024-01-17T05:26:08.657Z,43.83
2024-01-17T05:28:36.772Z,29.17
2024-01-17T05:31:04.500Z,27.97
2024-01-17T05:33:32.147Z,43.93
2024-01-17T05:35:59.412Z,40.17
2024-01-17T05:38:26.515Z,34.03
2024-01-17T05:40:53.923Z,43.43
2024-01-17T05:43:20.860Z,31.73
2024-01-17T05:45:47.801Z,32.63
2024-01-17T05:48:15.018Z,39.23
2024-01-17T05:50:43.121Z,42.50
2024-01-17T05:53:10.070Z,53.17
2024-01-17T05:55:36.998Z,60.27
2024-01-17T05:58:04.253Z,63.10
2024-01-17T06:00:31.229Z,85.33
2024-01-17T06:02:58.330Z,86.47
2024-01-17T06:05:25.212Z,74.90
2024-01-17T06:07:53.538Z,76.43
2024-01-17T06:10:20.451Z,80.17
2024-01-17T06:12:47.365Z,76.30
2024-01-17T06:15:19.192Z,73.60
2024-01-17T06:17:46.673Z,109.37
2024-01-17T06:20:13.852Z,103.97
2024-01-17T06:22:41.346Z,79.27
2024-01-17T06:25:09.202Z,61.70
2024-01-17T06:27:36.145Z,89.33
2024-01-17T06:30:04.304Z,73.83
2024-01-17T06:32:31.800Z,94.47
2024-01-17T06:34:58.918Z,100.90
2024-01-17T06:37:25.917Z,148.07
2024-01-17T06:39:52.903Z,137.63
2024-01-17T06:42:20.011Z,134.73
2024-01-17T06:44:47.334Z,156.90
2024-01-17T06:47:15.731Z,198.57
2024-01-17T06:49:43.180Z,192.97
2024-01-17T06:52:10.993Z,158.10
2024-01-17T06:54:38.539Z,104.30
2024-01-17T06:57:08.636Z,78.40
2024-01-17T06:59:36.008Z,83.67
2024-01-17T07:02:03.053Z,67.70
2024-01-17T07:04:30.044Z,73.07
2024-01-17T07:06:57.374Z,85.33
2024-01-17T07:09:24.500Z,82.93
2024-01-17T07:11:54.421Z,75.23
2024-01-17T07:14:21.477Z,76.20
2024-01-17T07:16:51.728Z,74.63
2024-01-17T07:19:18.842Z,61.47
2024-01-17T07:21:45.781Z,68.97
2024-01-17T07:24:13.944Z,79.90
2024-01-17T07:26:41.509Z,70.57
2024-01-17T07:29:09.552Z,66.97
2024-01-17T07:31:36.470Z,73.53
2024-01-17T07:34:03.747Z,60.57
2024-01-17T07:36:31.051Z,41.00
2024-01-17T07:38:57.973Z,37.80
2024-01-17T07:41:25.287Z,53.90
2024-01-17T07:43:52.289Z,46.40
2024-01-17T07:46:19.169Z,47.47
2024-01-17T07:48:46.394Z,43.73
2024-01-17T07:51:15.353Z,49.33
2024-01-17T07:53:42.355Z,44.70
2024-01-17T07:56:10.662Z,40.70
2024-01-17T07:58:37.837Z,39.63
2024-01-17T08:01:06.773Z,37.87
2024-01-17T08:03:34.023Z,39.40
2024-01-17T08:06:01.353Z,33.07
2024-01-17T08:08:28.381Z,33.57
2024-01-17T08:10:56.671Z,34.23
2024-01-17T08:13:26.831Z,35.90
2024-01-17T08:15:54.182Z,41.27
2024-01-17T08:18:21.358Z,36.30
2024-01-17T08:20:48.496Z,20.33
2024-01-17T08:23:16.230Z,22.20
2024-01-17T08:25:43.709Z,30.60
2024-01-17T08:28:10.604Z,13.13
2024-01-17T08:30:37.608Z,20.17
2024-01-17T08:33:08.040Z,21.33
2024-01-17T08:35:35.377Z,21.70
2024-01-17T08:38:02.257Z,22.27
2024-01-17T08:40:31.257Z,21.97
2024-01-17T08:43:02.060Z,21.93
2024-01-17T08:45:29.060Z,23.50
2024-01-17T08:47:56.098Z,20.43
2024-01-17T08:50:23.314Z,21.47
2024-01-17T08:52:50.707Z,19.43
2024-01-17T08:55:17.607Z,16.23
2024-01-17T08:57:44.609Z,9.47
2024-01-17T09:00:15.347Z,7.07
2024-01-17T09:02:42.572Z,8.10
2024-01-17T09:05:11.229Z,11.47
2024-01-17T09:07:38.512Z,10.00
2024-01-17T09:10:05.970Z,8.70
2024-01-17T09:12:32.839Z,10.87
2024-01-17T09:15:00.532Z,12.13
2024-01-17T09:17:29.273Z,9.13
2024-01-17T09:19:58.863Z,7.83
2024-01-17T09:22:25.889Z,9.93
2024-01-17T09:24:53.839Z,8.83
2024-01-17T09:27:20.799Z,10.80
2024-01-17T09:29:49.470Z,9.57
2024-01-17T09:32:21.066Z,8.83
2024-01-17T09:34:49.962Z,8.77
2024-01-17T09:37:20.099Z,7.47
2024-01-17T09:39:52.251Z,7.77
2024-01-17T09:42:22.518Z,10.30
2024-01-17T09:44:49.988Z,9.10
2024-01-17T09:47:19.962Z,9.30
2024-01-17T09:49:48.257Z,10.73
2024-01-17T09:52:19.478Z,9.20
2024-01-17T09:54:47.747Z,10.77
2024-01-17T09:57:26.166Z,8.63
2024-01-17T09:59:56.607Z,8.37
2024-01-17T10:02:26.172Z,7.10
2024-01-17T10:04:58.793Z,12.70
2024-01-17T10:07:25.931Z,8.77
2024-01-17T10:09:53.108Z,7.77
2024-01-17T10:12:22.173Z,5.83
2024-01-17T10:14:49.326Z,6.13
2024-01-17T10:17:16.259Z,7.93
2024-01-17T10:19:43.959Z,5.93
2024-01-17T10:22:11.977Z,9.07
2024-01-17T10:24:42.574Z,10.43
2024-01-17T10:27:10.653Z,8.23
2024-01-17T10:29:38.757Z,6.53
2024-01-17T10:32:07.107Z,11.77
2024-01-17T10:34:35.096Z,14.67
2024-01-17T10:37:04.975Z,11.23
2024-01-17T10:39:34.141Z,10.50
2024-01-17T10:42:01.824Z,10.43
2024-01-17T10:44:29.162Z,9.97
2024-01-17T10:46:56.341Z,24.63
2024-01-17T10:49:26.027Z,13.13
2024-01-17T10:52:04.522Z,9.07
2024-01-17T10:55:01.510Z,7.73
2024-01-17T10:57:30.348Z,9.90
2024-01-17T11:00:02.565Z,7.57
2024-01-17T11:02:31.253Z,10.40
2024-01-17T11:05:09.316Z,7.50
2024-01-17T11:07:37.611Z,7.43
2024-01-17T11:10:07.314Z,10.10
2024-01-17T11:12:37.211Z,10.90
2024-01-17T11:15:07.740Z,19.27
2024-01-17T11:17:39.495Z,8.83
2024-01-17T11:20:12.100Z,8.53
2024-01-17T11:22:41.405Z,7.13
2024-01-17T11:25:25.497Z,8.73
2024-01-17T11:28:14.187Z,7.73
2024-01-17T11:30:54.415Z,8.13
2024-01-17T11:33:23.669Z,9.77
2024-01-17T11:35:52.542Z,6.80
2024-01-17T11:38:25.461Z,10.67
2024-01-17T11:41:14.997Z,10.70
2024-01-17T11:43:44.078Z,6.57
2024-01-17T11:46:12.130Z,7.53
2024-01-17T11:48:42.255Z,6.47
2024-01-17T11:51:15.808Z,6.07
2024-01-17T11:53:47.637Z,9.27
2024-01-17T11:56:17.113Z,8.93
2024-01-17T11:58:47.842Z,6.13
2024-01-17T12:01:23.866Z,5.90
2024-01-17T12:03:52.265Z,6.83
2024-01-17T12:06:24.912Z,6.07
2024-01-17T12:08:57.716Z,7.73
2024-01-17T12:11:28.124Z,7.47
2024-01-17T12:13:56.701Z,6.13
2024-01-17T12:16:27.320Z,5.57
2024-01-17T12:18:58.650Z,12.13
2024-01-17T12:21:27.557Z,8.37
2024-01-17T12:23:54.663Z,6.07
2024-01-17T12:26:22.292Z,7.93
2024-01-17T12:28:51.028Z,15.53
2024-01-17T12:31:20.335Z,8.13
2024-01-17T12:33:49.715Z,11.50
2024-01-17T12:36:16.957Z,7.57
2024-01-17T12:38:43.973Z,7.13
2024-01-17T12:41:12.235Z,7.33
2024-01-17T12:43:40.201Z,6.27
2024-01-17T12:46:08.535Z,6.77
2024-01-17T12:48:37.304Z,8.30
2024-01-17T12:51:08.546Z,7.83
2024-01-17T12:53:36.354Z,25.97
2024-01-17T12:56:03.753Z,9.27
2024-01-17T12:58:33.063Z,8.90
2024-01-17T13:01:03.123Z,6.47
2024-01-17T13:03:30.923Z,8.30
2024-01-17T13:06:03.303Z,6.93
2024-01-17T13:08:32.396Z,5.67
2024-01-17T13:11:00.382Z,9.87
2024-01-17T13:13:30.118Z,8.43
2024-01-17T13:16:01.156Z,7.83
2024-01-17T13:18:30.251Z,8.53
2024-01-17T13:21:12.826Z,8.53
2024-01-17T13:23:41.064Z,6.77
2024-01-17T13:26:09.394Z,6.00
2024-01-17T13:28:38.208Z,5.77
2024-01-17T13:31:05.608Z,41.47
2024-01-17T13:33:34.174Z,16.07
2024-01-17T13:36:01.762Z,10.13
2024-01-17T13:38:29.850Z,8.73
2024-01-17T13:40:59.263Z,14.00
2024-01-17T13:43:28.168Z,10.23
2024-01-17T13:45:55.319Z,9.00
2024-01-17T13:48:22.502Z,5.67
2024-01-17T13:50:49.975Z,9.27
2024-01-17T13:53:29.454Z,7.00
2024-01-17T13:56:01.907Z,8.17
2024-01-17T13:58:30.495Z,8.70
2024-01-17T14:00:59.293Z,7.20
2024-01-17T14:03:32.245Z,7.07
2024-01-17T14:06:00.391Z,18.20
2024-01-17T14:08:27.837Z,14.20
2024-01-17T14:10:59.266Z,8.27
2024-01-17T14:13:26.204Z,7.87
2024-01-17T14:15:53.265Z,12.37
2024-01-17T14:18:22.736Z,18.57
2024-01-17T14:20:49.946Z,31.10
2024-01-17T14:23:19.920Z,105.77
2024-01-17T14:25:47.053Z,32.60
2024-01-17T14:28:13.981Z,43.77
2024-01-17T14:30:41.137Z,32.70
2024-01-17T14:33:08.504Z,30.07
2024-01-17T14:35:38.772Z,54.23
2024-01-17T14:38:07.625Z,12.73
2024-01-17T14:40:36.683Z,16.93
2024-01-17T14:43:07.018Z,11.77
2024-01-17T14:45:37.677Z,67.13
2024-01-17T14:48:05.892Z,37.10
2024-01-17T14:50:35.556Z,26.27
2024-01-17T14:53:03.209Z,29.50
2024-01-17T14:55:31.670Z,22.10
2024-01-17T14:57:59.812Z,32.80
2024-01-17T15:00:28.867Z,20.83
2024-01-17T15:02:56.618Z,24.93
2024-01-17T15:05:27.059Z,18.97
2024-01-17T15:07:57.378Z,16.67
2024-01-17T15:10:25.753Z,16.43
2024-01-17T15:12:53.078Z,37.90
2024-01-17T15:15:21.336Z,50.90
2024-01-17T15:17:50.211Z,57.20
2024-01-17T15:20:20.194Z,34.50
2024-01-17T15:22:48.254Z,85.93
2024-01-17T15:25:18.824Z,87.67
2024-01-17T15:27:45.916Z,62.87
2024-01-17T15:30:17.256Z,73.93
2024-01-17T15:32:49.762Z,61.90
2024-01-17T15:35:17.640Z,88.13
2024-01-17T15:37:46.158Z,54.63
2024-01-17T15:40:14.660Z,59.00
2024-01-17T15:42:43.278Z,141.10
2024-01-17T15:45:10.869Z,56.67
2024-01-17T15:47:38.403Z,91.30
2024-01-17T15:50:05.762Z,75.13
2024-01-17T15:52:33.796Z,48.93
2024-01-17T15:55:02.620Z,66.47
2024-01-17T15:57:29.719Z,70.77
2024-01-17T15:59:57.970Z,59.33
2024-01-17T16:02:26.865Z,81.20
2024-01-17T16:04:59.341Z,98.63
2024-01-17T16:07:26.646Z,97.93
2024-01-17T16:09:55.275Z,86.30
2024-01-17T16:12:23.306Z,75.07
2024-01-17T16:14:54.949Z,79.30
2024-01-17T16:17:26.262Z,79.87
2024-01-17T16:20:01.240Z,68.83
2024-01-17T16:22:28.987Z,72.83
2024-01-17T16:24:56.473Z,71.67
2024-01-17T16:27:23.413Z,77.07
2024-01-17T16:29:50.720Z,66.37
2024-01-17T16:32:20.409Z,62.00
2024-01-17T16:34:48.286Z,67.47
2024-01-17T16:37:15.716Z,71.50
2024-01-17T16:39:53.479Z,64.83
2024-01-17T16:42:22.138Z,68.30
2024-01-17T16:44:52.512Z,71.50
2024-01-17T16:47:21.555Z,80.13
2024-01-17T16:49:55.351Z,93.37
2024-01-17T16:52:23.734Z,94.43
2024-01-17T16:54:53.972Z,86.97
2024-01-17T16:57:30.365Z,101.83
2024-01-17T16:59:58.809Z,101.67
2024-01-17T17:02:28.902Z,144.40
2024-01-17T17:04:58.178Z,107.97
2024-01-17T17:07:25.621Z,102.60
2024-01-17T17:09:52.694Z,167.17
2024-01-17T17:12:20.586Z,158.90
2024-01-17T17:14:48.317Z,281.00
2024-01-17T17:17:15.304Z,284.17
2024-01-17T17:19:43.313Z,263.30
2024-01-17T17:22:11.697Z,259.90
2024-01-17T17:24:41.826Z,278.40
2024-01-17T17:27:08.877Z,253.80
2024-01-17T17:29:37.569Z,248.40
2024-01-17T17:32:06.385Z,240.67
2024-01-17T17:34:34.942Z,259.10
2024-01-17T17:37:02.522Z,241.30
2024-01-17T17:39:29.858Z,233.40
2024-01-17T17:41:58.119Z,225.83
2024-01-17T17:44:27.253Z,200.47
2024-01-17T17:46:54.810Z,192.37
2024-01-17T17:49:22.840Z,191.93
2024-01-17T17:51:51.215Z,178.87
2024-01-17T17:54:20.173Z,176.83
2024-01-17T17:56:47.423Z,168.17
2024-01-17T17:59:15.813Z,168.77
2024-01-17T18:01:44.328Z,169.23
2024-01-17T18:04:13.493Z,164.23
2024-01-17T18:06:41.400Z,170.53
2024-01-17T18:09:10.038Z,164.07
2024-01-17T18:11:39.385Z,140.60
2024-01-17T18:14:09.842Z,127.80
2024-01-17T18:16:38.049Z,117.63
2024-01-17T18:19:08.568Z,124.50
2024-01-17T18:21:38.575Z,110.83
2024-01-17T18:24:08.776Z,119.47
2024-01-17T18:26:36.475Z,119.07
2024-01-17T18:29:05.439Z,120.03
2024-01-17T18:31:35.680Z,136.57
2024-01-17T18:34:07.190Z,137.37
2024-01-17T18:36:38.057Z,139.17
2024-01-17T18:39:06.764Z,144.13
2024-01-17T18:41:36.069Z,152.10
2024-01-17T18:44:04.785Z,168.73
2024-01-17T18:46:31.862Z,149.73
2024-01-17T18:49:02.923Z,140.00
2024-01-17T18:51:41.548Z,134.10
2024-01-17T18:54:11.797Z,134.53
2024-01-17T18:56:59.381Z,148.90
2024-01-17T18:59:27.208Z,150.23
2024-01-17T19:01:54.404Z,126.27
2024-01-17T19:04:21.543Z,130.07
2024-01-17T19:06:48.696Z,153.13
2024-01-17T19:09:17.643Z,210.83
2024-01-17T19:11:45.208Z,152.13
2024-01-17T19:14:13.853Z,86.53
2024-01-17T19:16:42.672Z,216.07
2024-01-17T19:19:12.016Z,213.67
2024-01-17T19:21:42.511Z,197.87
2024-01-17T19:24:11.102Z,127.10
2024-01-17T19:26:49.205Z,81.00
2024-01-17T19:29:20.303Z,45.67
2024-01-17T19:31:55.161Z,32.53
2024-01-17T19:34:24.177Z,23.87
2024-01-17T19:36:51.357Z,15.97
2024-01-17T19:39:18.638Z,15.83
2024-01-17T19:41:46.049Z,16.07
2024-01-17T19:44:13.274Z,13.70
2024-01-17T19:46:49.042Z,12.67
2024-01-17T19:49:32.048Z,12.77
2024-01-17T19:52:01.736Z,13.83
2024-01-17T19:54:32.799Z,17.33
2024-01-17T19:57:00.305Z,70.00
2024-01-17T19:59:28.925Z,36.67
2024-01-17T20:01:57.257Z,27.03
2024-01-17T20:04:24.650Z,22.03
2024-01-17T20:06:51.942Z,39.03
2024-01-17T20:09:21.854Z,78.93
2024-01-17T20:11:50.665Z,293.67
2024-01-17T20:14:18.282Z,139.50
2024-01-17T20:16:45.888Z,128.93
2024-01-17T20:19:17.636Z,90.87
2024-01-17T20:21:45.280Z,43.40
2024-01-17T20:24:12.484Z,38.87
2024-01-17T20:26:39.875Z,39.77
2024-01-17T20:29:06.920Z,38.73
2024-01-17T20:31:34.152Z,35.23
2024-01-17T20:34:06.572Z,39.73
2024-01-17T20:36:37.269Z,35.37
2024-01-17T20:39:04.722Z,45.37
2024-01-17T20:41:33.128Z,50.43
2024-01-17T20:44:01.411Z,50.03
2024-01-17T20:46:31.188Z,69.50
2024-01-17T20:48:59.529Z,80.93
2024-01-17T20:51:29.533Z,170.77
2024-01-17T20:53:56.742Z,190.83
2024-01-17T20:56:24.577Z,69.87
2024-01-17T20:58:54.801Z,91.30
2024-01-17T21:01:23.695Z,142.00
2024-01-17T21:03:50.650Z,179.93
2024-01-17T21:06:17.728Z,61.30
2024-01-17T21:08:44.631Z,72.87
2024-01-17T21:11:11.839Z,80.93
2024-01-17T21:13:38.814Z,78.37
2024-01-17T21:16:09.984Z,95.23
2024-01-17T21:18:37.022Z,100.53
2024-01-17T21:21:04.243Z,93.90
2024-01-17T21:23:31.629Z,51.17
2024-01-17T21:26:00.315Z,41.80
2024-01-17T21:28:31.144Z,53.43
2024-01-17T21:30:59.304Z,41.93
2024-01-17T21:33:26.383Z,58.93
2024-01-17T21:35:53.471Z,64.93
2024-01-17T21:38:20.997Z,64.50
2024-01-17T21:40:48.622Z,87.00
2024-01-17T21:43:15.697Z,59.97
2024-01-17T21:45:42.875Z,66.30
2024-01-17T21:48:10.178Z,67.77
2024-01-17T21:50:37.682Z,80.20
2024-01-17T21:53:04.958Z,71.10
2024-01-17T21:55:32.075Z,63.37
2024-01-17T21:58:02.401Z,74.77
2024-01-17T22:00:29.572Z,63.13
2024-01-17T22:02:57.140Z,48.27
2024-01-17T22:05:24.210Z,59.20
2024-01-17T22:07:51.726Z,51.97
2024-01-17T22:10:19.785Z,49.20
2024-01-17T22:12:46.873Z,59.33
2024-01-17T22:15:14.049Z,39.37
2024-01-17T22:17:41.180Z,30.23
2024-01-17T22:20:11.990Z,100.93
2024-01-17T22:22:40.010Z,59.67
2024-01-17T22:25:07.936Z,32.77
2024-01-17T22:27:35.086Z,37.60
2024-01-17T22:30:02.261Z,23.80
2024-01-17T22:32:30.487Z,22.00
2024-01-17T22:34:57.659Z,24.80
2024-01-17T22:37:26.841Z,61.77
2024-01-17T22:39:55.373Z,31.93
2024-01-17T22:42:26.722Z,33.53
2024-01-17T22:44:55.368Z,33.20
2024-01-17T22:47:22.777Z,33.83
2024-01-17T22:49:49.859Z,37.87
2024-01-17T22:52:19.012Z,34.63
2024-01-17T22:54:45.981Z,52.73
2024-01-17T22:57:12.984Z,47.97
2024-01-17T22:59:41.101Z,44.30
2024-01-17T23:02:08.100Z,40.03
2024-01-17T23:04:35.270Z,78.13
2024-01-17T23:07:02.543Z,53.13
2024-01-17T23:09:30.876Z,41.33
2024-01-17T23:11:58.644Z,39.20
2024-01-17T23:14:25.652Z,30.47
2024-01-17T23:16:52.632Z,24.63
2024-01-17T23:19:19.867Z,29.37
2024-01-17T23:21:47.679Z,27.00
2024-01-17T23:24:15.849Z,29.10
2024-01-17T23:26:42.940Z,24.53
2024-01-17T23:29:09.849Z,22.97
2024-01-17T23:31:36.873Z,24.10
2024-01-17T23:34:04.014Z,23.70
2024-01-17T23:36:31.127Z,35.40
2024-01-17T23:38:58.994Z,31.70
2024-01-17T23:41:26.612Z,30.97
2024-01-17T23:43:53.876Z,23.63
2024-01-17T23:46:21.590Z,25.93
2024-01-17T23:48:48.804Z,24.10
2024-01-17T23:51:15.789Z,24.07
2024-01-17T23:53:42.759Z,18.60
2024-01-17T23:56:09.677Z,23.50
2024-01-17T23:58:36.868Z,22.40
